sensor_id;sensor_type;location;lat;lon;timestamp;P1;durP1;ratioP1;P2;durP2;ratioP2
52942;SDS011;38809;53.300;6.614;2023-12-04T00:02:03;26.27;;;13.98;;
52942;SDS011;38809;53.300;6.614;2023-12-04T00:04:29;28.17;;;14.40;;
52942;SDS011;38809;53.300;6.614;2023-12-04T00:06:59;22.90;;;12.98;;
52942;SDS011;38809;53.300;6.614;2023-12-04T00:09:25;22.20;;;13.98;;
52942;SDS011;38809;53.300;6.614;2023-12-04T00:11:52;25.52;;;14.35;;
52942;SDS011;38809;53.300;6.614;2023-12-04T00:14:18;24.73;;;14.63;;
52942;SDS011;38809;53.300;6.614;2023-12-04T00:16:44;25.52;;;14.02;;
52942;SDS011;38809;53.300;6.614;2023-12-04T00:19:10;25.80;;;14.38;;
52942;SDS011;38809;53.300;6.614;2023-12-04T00:21:37;27.35;;;14.45;;
52942;SDS011;38809;53.300;6.614;2023-12-04T00:24:04;26.25;;;16.10;;
52942;SDS011;38809;53.300;6.614;2023-12-04T00:26:38;23.95;;;13.57;;
52942;SDS011;38809;53.300;6.614;2023-12-04T00:29:07;27.13;;;14.50;;
52942;SDS011;38809;53.300;6.614;2023-12-04T00:31:39;26.27;;;16.02;;
52942;SDS011;38809;53.300;6.614;2023-12-04T00:34:05;27.25;;;16.33;;
52942;SDS011;38809;53.300;6.614;2023-12-04T00:36:34;24.48;;;13.48;;
52942;SDS011;38809;53.300;6.614;2023-12-04T00:39:05;26.70;;;14.88;;
52942;SDS011;38809;53.300;6.614;2023-12-04T00:41:31;27.00;;;15.25;;
52942;SDS011;38809;53.300;6.614;2023-12-04T00:46:30;25.15;;;14.55;;
52942;SDS011;38809;53.300;6.614;2023-12-04T00:48:56;23.65;;;14.48;;
52942;SDS011;38809;53.300;6.614;2023-12-04T00:51:23;28.95;;;15.68;;
52942;SDS011;38809;53.300;6.614;2023-12-04T00:53:51;25.52;;;13.98;;
52942;SDS011;38809;53.300;6.614;2023-12-04T00:56:32;25.20;;;15.00;;
52942;SDS011;38809;53.300;6.614;2023-12-04T00:59:00;25.83;;;14.52;;
52942;SDS011;38809;53.300;6.614;2023-12-04T01:01:36;26.52;;;14.40;;
52942;SDS011;38809;53.300;6.614;2023-12-04T01:04:02;27.48;;;16.13;;
52942;SDS011;38809;53.300;6.614;2023-12-04T01:06:35;24.55;;;14.38;;
52942;SDS011;38809;53.300;6.614;2023-12-04T01:09:02;27.20;;;15.20;;
52942;SDS011;38809;53.300;6.614;2023-12-04T01:11:29;26.83;;;14.38;;
52942;SDS011;38809;53.300;6.614;2023-12-04T01:13:55;26.27;;;15.57;;
52942;SDS011;38809;53.300;6.614;2023-12-04T01:16:25;24.52;;;15.20;;
52942;SDS011;38809;53.300;6.614;2023-12-04T01:18:51;26.27;;;14.57;;
52942;SDS011;38809;53.300;6.614;2023-12-04T01:21:20;24.40;;;14.52;;
52942;SDS011;38809;53.300;6.614;2023-12-04T01:23:48;23.88;;;13.82;;
52942;SDS011;38809;53.300;6.614;2023-12-04T01:26:20;22.20;;;13.00;;
52942;SDS011;38809;53.300;6.614;2023-12-04T01:28:47;25.58;;;14.60;;
52942;SDS011;38809;53.300;6.614;2023-12-04T01:31:20;23.58;;;13.20;;
52942;SDS011;38809;53.300;6.614;2023-12-04T01:33:47;27.35;;;14.02;;
52942;SDS011;38809;53.300;6.614;2023-12-04T01:36:13;22.73;;;13.38;;
52942;SDS011;38809;53.300;6.614;2023-12-04T01:38:40;22.85;;;12.82;;
52942;SDS011;38809;53.300;6.614;2023-12-04T01:41:07;25.65;;;15.25;;
52942;SDS011;38809;53.300;6.614;2023-12-04T01:46:00;24.63;;;14.20;;
52942;SDS011;38809;53.300;6.614;2023-12-04T01:48:29;24.02;;;13.45;;
52942;SDS011;38809;53.300;6.614;2023-12-04T01:51:00;25.02;;;14.75;;
52942;SDS011;38809;53.300;6.614;2023-12-04T01:53:32;22.10;;;14.13;;
52942;SDS011;38809;53.300;6.614;2023-12-04T01:55:58;24.92;;;14.95;;
52942;SDS011;38809;53.300;6.614;2023-12-04T01:58:24;21.30;;;12.55;;
52942;SDS011;38809;53.300;6.614;2023-12-04T02:00:51;25.02;;;14.90;;
52942;SDS011;38809;53.300;6.614;2023-12-04T02:03:17;23.52;;;13.73;;
52942;SDS011;38809;53.300;6.614;2023-12-04T02:05:47;22.05;;;12.80;;
52942;SDS011;38809;53.300;6.614;2023-12-04T02:08:13;22.48;;;13.50;;
52942;SDS011;38809;53.300;6.614;2023-12-04T02:10:43;23.23;;;13.45;;
52942;SDS011;38809;53.300;6.614;2023-12-04T02:13:09;23.83;;;14.40;;
52942;SDS011;38809;53.300;6.614;2023-12-04T02:15:35;24.05;;;14.25;;
52942;SDS011;38809;53.300;6.614;2023-12-04T02:18:09;25.08;;;13.98;;
52942;SDS011;38809;53.300;6.614;2023-12-04T02:20:39;24.10;;;14.77;;
52942;SDS011;38809;53.300;6.614;2023-12-04T02:23:14;24.75;;;14.25;;
52942;SDS011;38809;53.300;6.614;2023-12-04T02:25:44;24.10;;;15.35;;
52942;SDS011;38809;53.300;6.614;2023-12-04T02:28:11;22.75;;;13.40;;
52942;SDS011;38809;53.300;6.614;2023-12-04T02:30:39;23.20;;;14.98;;
52942;SDS011;38809;53.300;6.614;2023-12-04T02:33:06;22.55;;;13.20;;
52942;SDS011;38809;53.300;6.614;2023-12-04T02:35:34;22.77;;;13.27;;
52942;SDS011;38809;53.300;6.614;2023-12-04T02:38:02;22.45;;;14.00;;
52942;SDS011;38809;53.300;6.614;2023-12-04T02:40:31;23.25;;;13.52;;
52942;SDS011;38809;53.300;6.614;2023-12-04T02:43:03;23.00;;;13.48;;
52942;SDS011;38809;53.300;6.614;2023-12-04T02:45:31;21.33;;;13.63;;
52942;SDS011;38809;53.300;6.614;2023-12-04T02:48:04;25.05;;;13.95;;
52942;SDS011;38809;53.300;6.614;2023-12-04T02:50:32;28.50;;;15.07;;
52942;SDS011;38809;53.300;6.614;2023-12-04T02:52:58;25.77;;;15.48;;
52942;SDS011;38809;53.300;6.614;2023-12-04T02:55:25;24.23;;;14.05;;
52942;SDS011;38809;53.300;6.614;2023-12-04T02:57:51;24.15;;;13.55;;
52942;SDS011;38809;53.300;6.614;2023-12-04T03:00:20;26.40;;;14.57;;
52942;SDS011;38809;53.300;6.614;2023-12-04T03:02:47;22.77;;;14.15;;
52942;SDS011;38809;53.300;6.614;2023-12-04T03:05:14;22.05;;;12.90;;
52942;SDS011;38809;53.300;6.614;2023-12-04T03:07:40;26.27;;;14.50;;
52942;SDS011;38809;53.300;6.614;2023-12-04T03:10:06;23.48;;;14.05;;
52942;SDS011;38809;53.300;6.614;2023-12-04T03:15:00;21.75;;;12.70;;
52942;SDS011;38809;53.300;6.614;2023-12-04T03:17:32;19.65;;;12.18;;
52942;SDS011;38809;53.300;6.614;2023-12-04T03:20:04;21.65;;;13.23;;
52942;SDS011;38809;53.300;6.614;2023-12-04T03:22:33;25.38;;;13.48;;
52942;SDS011;38809;53.300;6.614;2023-12-04T03:25:06;22.95;;;13.55;;
52942;SDS011;38809;53.300;6.614;2023-12-04T03:27:32;22.42;;;13.77;;
52942;SDS011;38809;53.300;6.614;2023-12-04T03:29:58;24.67;;;15.20;;
52942;SDS011;38809;53.300;6.614;2023-12-04T03:32:24;20.42;;;12.85;;
52942;SDS011;38809;53.300;6.614;2023-12-04T03:34:50;22.98;;;13.05;;
52942;SDS011;38809;53.300;6.614;2023-12-04T03:37:16;23.48;;;14.73;;
52942;SDS011;38809;53.300;6.614;2023-12-04T03:39:43;24.38;;;13.00;;
52942;SDS011;38809;53.300;6.614;2023-12-04T03:42:10;22.55;;;14.45;;
52942;SDS011;38809;53.300;6.614;2023-12-04T03:44:39;24.48;;;13.48;;
52942;SDS011;38809;53.300;6.614;2023-12-04T03:47:18;20.85;;;12.52;;
52942;SDS011;38809;53.300;6.614;2023-12-04T03:49:45;23.80;;;13.70;;
52942;SDS011;38809;53.300;6.614;2023-12-04T03:52:11;22.67;;;14.52;;
52942;SDS011;38809;53.300;6.614;2023-12-04T03:54:43;24.77;;;14.60;;
52942;SDS011;38809;53.300;6.614;2023-12-04T03:57:09;25.83;;;13.68;;
52942;SDS011;38809;53.300;6.614;2023-12-04T03:59:35;23.88;;;14.50;;
52942;SDS011;38809;53.300;6.614;2023-12-04T04:02:11;22.33;;;13.55;;
52942;SDS011;38809;53.300;6.614;2023-12-04T04:04:37;20.58;;;12.43;;
52942;SDS011;38809;53.300;6.614;2023-12-04T04:07:06;25.65;;;14.35;;
52942;SDS011;38809;53.300;6.614;2023-12-04T04:09:32;26.27;;;14.30;;
52942;SDS011;38809;53.300;6.614;2023-12-04T04:11:58;21.52;;;13.32;;
52942;SDS011;38809;53.300;6.614;2023-12-04T04:16:50;24.45;;;14.38;;
52942;SDS011;38809;53.300;6.614;2023-12-04T04:19:19;21.48;;;13.30;;
52942;SDS011;38809;53.300;6.614;2023-12-04T04:21:49;25.20;;;14.07;;
52942;SDS011;38809;53.300;6.614;2023-12-04T04:24:15;24.05;;;12.65;;
52942;SDS011;38809;53.300;6.614;2023-12-04T04:26:42;21.50;;;13.70;;
52942;SDS011;38809;53.300;6.614;2023-12-04T04:29:08;23.92;;;13.82;;
52942;SDS011;38809;53.300;6.614;2023-12-04T04:31:35;23.13;;;12.80;;
52942;SDS011;38809;53.300;6.614;2023-12-04T04:34:01;23.88;;;13.93;;
52942;SDS011;38809;53.300;6.614;2023-12-04T04:36:27;22.90;;;13.55;;
52942;SDS011;38809;53.300;6.614;2023-12-04T04:38:54;25.80;;;14.45;;
52942;SDS011;38809;53.300;6.614;2023-12-04T04:41:20;22.67;;;13.75;;
52942;SDS011;38809;53.300;6.614;2023-12-04T04:43:49;22.25;;;13.25;;
52942;SDS011;38809;53.300;6.614;2023-12-04T04:48:42;20.52;;;13.10;;
52942;SDS011;38809;53.300;6.614;2023-12-04T04:51:08;24.25;;;13.60;;
52942;SDS011;38809;53.300;6.614;2023-12-04T04:53:40;24.48;;;13.57;;
52942;SDS011;38809;53.300;6.614;2023-12-04T04:56:07;21.92;;;13.10;;
52942;SDS011;38809;53.300;6.614;2023-12-04T04:58:34;22.70;;;12.60;;
52942;SDS011;38809;53.300;6.614;2023-12-04T05:01:00;22.17;;;13.32;;
52942;SDS011;38809;53.300;6.614;2023-12-04T05:03:28;25.25;;;14.73;;
52942;SDS011;38809;53.300;6.614;2023-12-04T05:05:55;22.25;;;13.05;;
52942;SDS011;38809;53.300;6.614;2023-12-04T05:08:22;20.10;;;12.50;;
52942;SDS011;38809;53.300;6.614;2023-12-04T05:10:48;23.55;;;12.95;;
52942;SDS011;38809;53.300;6.614;2023-12-04T05:15:44;20.27;;;11.60;;
52942;SDS011;38809;53.300;6.614;2023-12-04T05:18:17;19.98;;;13.05;;
52942;SDS011;38809;53.300;6.614;2023-12-04T05:20:43;24.50;;;14.65;;
52942;SDS011;38809;53.300;6.614;2023-12-04T05:23:16;23.40;;;13.55;;
52942;SDS011;38809;53.300;6.614;2023-12-04T05:25:43;22.80;;;13.73;;
52942;SDS011;38809;53.300;6.614;2023-12-04T05:28:09;22.45;;;12.73;;
52942;SDS011;38809;53.300;6.614;2023-12-04T05:30:39;25.02;;;13.65;;
52942;SDS011;38809;53.300;6.614;2023-12-04T05:33:05;22.15;;;12.18;;
52942;SDS011;38809;53.300;6.614;2023-12-04T05:37:59;17.23;;;9.85;;
52942;SDS011;38809;53.300;6.614;2023-12-04T05:40:28;21.90;;;11.85;;
52942;SDS011;38809;53.300;6.614;2023-12-04T05:42:54;23.15;;;13.73;;
52942;SDS011;38809;53.300;6.614;2023-12-04T05:45:27;27.65;;;16.27;;
52942;SDS011;38809;53.300;6.614;2023-12-04T05:47:53;22.02;;;12.38;;
52942;SDS011;38809;53.300;6.614;2023-12-04T05:50:19;22.98;;;13.20;;
52942;SDS011;38809;53.300;6.614;2023-12-04T05:52:45;24.88;;;15.10;;
52942;SDS011;38809;53.300;6.614;2023-12-04T05:55:11;23.67;;;13.60;;
52942;SDS011;38809;53.300;6.614;2023-12-04T05:57:41;24.30;;;14.05;;
52942;SDS011;38809;53.300;6.614;2023-12-04T06:00:07;21.08;;;12.65;;
52942;SDS011;38809;53.300;6.614;2023-12-04T06:02:43;22.10;;;13.32;;
52942;SDS011;38809;53.300;6.614;2023-12-04T06:05:10;24.45;;;14.40;;
52942;SDS011;38809;53.300;6.614;2023-12-04T06:07:36;23.85;;;12.70;;
52942;SDS011;38809;53.300;6.614;2023-12-04T06:10:03;22.00;;;12.75;;
52942;SDS011;38809;53.300;6.614;2023-12-04T06:12:33;27.20;;;14.43;;
52942;SDS011;38809;53.300;6.614;2023-12-04T06:15:00;23.83;;;12.48;;
52942;SDS011;38809;53.300;6.614;2023-12-04T06:17:26;22.27;;;12.15;;
52942;SDS011;38809;53.300;6.614;2023-12-04T06:19:53;25.80;;;14.30;;
52942;SDS011;38809;53.300;6.614;2023-12-04T06:25:03;24.33;;;13.57;;
52942;SDS011;38809;53.300;6.614;2023-12-04T06:27:44;20.75;;;11.27;;
52942;SDS011;38809;53.300;6.614;2023-12-04T06:30:17;24.98;;;14.70;;
52942;SDS011;38809;53.300;6.614;2023-12-04T06:32:43;23.48;;;13.82;;
52942;SDS011;38809;53.300;6.614;2023-12-04T06:35:11;23.63;;;13.20;;
52942;SDS011;38809;53.300;6.614;2023-12-04T06:37:38;25.17;;;13.73;;
52942;SDS011;38809;53.300;6.614;2023-12-04T06:40:07;25.23;;;14.65;;
52942;SDS011;38809;53.300;6.614;2023-12-04T06:42:35;23.70;;;13.55;;
52942;SDS011;38809;53.300;6.614;2023-12-04T06:45:11;23.38;;;14.18;;
52942;SDS011;38809;53.300;6.614;2023-12-04T06:47:37;22.80;;;12.27;;
52942;SDS011;38809;53.300;6.614;2023-12-04T06:50:12;24.95;;;13.25;;
52942;SDS011;38809;53.300;6.614;2023-12-04T06:52:38;22.02;;;11.95;;
52942;SDS011;38809;53.300;6.614;2023-12-04T06:55:04;23.27;;;12.63;;
52942;SDS011;38809;53.300;6.614;2023-12-04T06:57:34;20.90;;;12.10;;
52942;SDS011;38809;53.300;6.614;2023-12-04T07:00:01;21.23;;;11.88;;
52942;SDS011;38809;53.300;6.614;2023-12-04T07:02:28;21.15;;;12.73;;
52942;SDS011;38809;53.300;6.614;2023-12-04T07:04:57;25.10;;;13.88;;
52942;SDS011;38809;53.300;6.614;2023-12-04T07:07:30;22.42;;;14.15;;
52942;SDS011;38809;53.300;6.614;2023-12-04T07:09:58;22.27;;;13.15;;
52942;SDS011;38809;53.300;6.614;2023-12-04T07:12:24;23.00;;;12.68;;
52942;SDS011;38809;53.300;6.614;2023-12-04T07:14:50;21.42;;;12.20;;
52942;SDS011;38809;53.300;6.614;2023-12-04T07:17:22;21.85;;;11.52;;
52942;SDS011;38809;53.300;6.614;2023-12-04T07:19:48;21.67;;;11.88;;
52942;SDS011;38809;53.300;6.614;2023-12-04T07:22:21;25.55;;;11.93;;
52942;SDS011;38809;53.300;6.614;2023-12-04T07:24:50;21.42;;;12.38;;
52942;SDS011;38809;53.300;6.614;2023-12-04T07:27:26;20.80;;;12.13;;
52942;SDS011;38809;53.300;6.614;2023-12-04T07:29:53;22.90;;;12.13;;
52942;SDS011;38809;53.300;6.614;2023-12-04T07:32:23;21.33;;;11.73;;
52942;SDS011;38809;53.300;6.614;2023-12-04T07:34:49;19.38;;;11.65;;
52942;SDS011;38809;53.300;6.614;2023-12-04T07:37:17;21.83;;;12.25;;
52942;SDS011;38809;53.300;6.614;2023-12-04T07:39:49;21.52;;;12.00;;
52942;SDS011;38809;53.300;6.614;2023-12-04T07:42:22;23.00;;;12.77;;
52942;SDS011;38809;53.300;6.614;2023-12-04T07:45:28;18.85;;;11.00;;
52942;SDS011;38809;53.300;6.614;2023-12-04T07:47:57;19.77;;;12.02;;
52942;SDS011;38809;53.300;6.614;2023-12-04T07:50:24;25.75;;;12.38;;
52942;SDS011;38809;53.300;6.614;2023-12-04T07:53:03;20.13;;;11.27;;
52942;SDS011;38809;53.300;6.614;2023-12-04T07:55:34;20.65;;;12.32;;
52942;SDS011;38809;53.300;6.614;2023-12-04T07:58:08;20.90;;;11.32;;
52942;SDS011;38809;53.300;6.614;2023-12-04T08:00:40;20.42;;;11.82;;
52942;SDS011;38809;53.300;6.614;2023-12-04T08:03:11;19.75;;;11.50;;
52942;SDS011;38809;53.300;6.614;2023-12-04T08:05:37;20.05;;;12.30;;
52942;SDS011;38809;53.300;6.614;2023-12-04T08:08:03;18.98;;;11.45;;
52942;SDS011;38809;53.300;6.614;2023-12-04T08:10:32;19.80;;;11.45;;
52942;SDS011;38809;53.300;6.614;2023-12-04T08:13:29;18.33;;;10.90;;
52942;SDS011;38809;53.300;6.614;2023-12-04T08:15:55;21.00;;;11.73;;
52942;SDS011;38809;53.300;6.614;2023-12-04T08:18:23;21.10;;;11.80;;
52942;SDS011;38809;53.300;6.614;2023-12-04T08:20:50;18.73;;;11.38;;
52942;SDS011;38809;53.300;6.614;2023-12-04T08:23:17;18.38;;;12.63;;
52942;SDS011;38809;53.300;6.614;2023-12-04T08:25:43;19.77;;;12.35;;
52942;SDS011;38809;53.300;6.614;2023-12-04T08:28:10;18.90;;;11.20;;
52942;SDS011;38809;53.300;6.614;2023-12-04T08:30:39;19.05;;;11.30;;
52942;SDS011;38809;53.300;6.614;2023-12-04T08:33:09;17.17;;;10.25;;
52942;SDS011;38809;53.300;6.614;2023-12-04T08:35:55;20.33;;;12.47;;
52942;SDS011;38809;53.300;6.614;2023-12-04T08:38:25;19.75;;;10.15;;
52942;SDS011;38809;53.300;6.614;2023-12-04T08:43:24;15.73;;;9.70;;
52942;SDS011;38809;53.300;6.614;2023-12-04T08:45:50;17.23;;;10.80;;
52942;SDS011;38809;53.300;6.614;2023-12-04T08:48:16;16.33;;;9.43;;
52942;SDS011;38809;53.300;6.614;2023-12-04T08:50:43;18.48;;;11.85;;
52942;SDS011;38809;53.300;6.614;2023-12-04T08:53:10;17.70;;;10.65;;
52942;SDS011;38809;53.300;6.614;2023-12-04T08:55:40;18.85;;;10.20;;
52942;SDS011;38809;53.300;6.614;2023-12-04T08:58:06;17.45;;;10.95;;
52942;SDS011;38809;53.300;6.614;2023-12-04T09:00:33;17.73;;;9.95;;
52942;SDS011;38809;53.300;6.614;2023-12-04T09:03:02;21.33;;;11.43;;
52942;SDS011;38809;53.300;6.614;2023-12-04T09:05:34;17.08;;;10.63;;
52942;SDS011;38809;53.300;6.614;2023-12-04T09:08:06;20.35;;;12.20;;
52942;SDS011;38809;53.300;6.614;2023-12-04T09:10:38;17.48;;;10.27;;
52942;SDS011;38809;53.300;6.614;2023-12-04T09:13:04;16.10;;;9.88;;
52942;SDS011;38809;53.300;6.614;2023-12-04T09:15:30;19.02;;;11.63;;
52942;SDS011;38809;53.300;6.614;2023-12-04T09:17:56;15.65;;;9.65;;
52942;SDS011;38809;53.300;6.614;2023-12-04T09:20:22;18.33;;;11.43;;
52942;SDS011;38809;53.300;6.614;2023-12-04T09:22:49;15.23;;;10.15;;
52942;SDS011;38809;53.300;6.614;2023-12-04T09:25:17;17.77;;;10.35;;
52942;SDS011;38809;53.300;6.614;2023-12-04T09:27:50;17.27;;;10.90;;
52942;SDS011;38809;53.300;6.614;2023-12-04T09:30:16;15.73;;;9.70;;
52942;SDS011;38809;53.300;6.614;2023-12-04T09:32:43;16.25;;;10.23;;
52942;SDS011;38809;53.300;6.614;2023-12-04T09:35:10;15.63;;;10.25;;
52942;SDS011;38809;53.300;6.614;2023-12-04T09:40:04;12.48;;;8.02;;
52942;SDS011;38809;53.300;6.614;2023-12-04T09:42:30;16.33;;;9.98;;
52942;SDS011;38809;53.300;6.614;2023-12-04T09:44:58;15.32;;;9.13;;
52942;SDS011;38809;53.300;6.614;2023-12-04T09:47:26;13.85;;;9.57;;
52942;SDS011;38809;53.300;6.614;2023-12-04T09:49:53;13.85;;;8.57;;
52942;SDS011;38809;53.300;6.614;2023-12-04T09:52:19;14.55;;;9.10;;
52942;SDS011;38809;53.300;6.614;2023-12-04T09:54:46;15.25;;;9.30;;
52942;SDS011;38809;53.300;6.614;2023-12-04T09:57:12;13.88;;;8.75;;
52942;SDS011;38809;53.300;6.614;2023-12-04T09:59:39;14.23;;;8.65;;
52942;SDS011;38809;53.300;6.614;2023-12-04T10:02:06;16.10;;;8.32;;
52942;SDS011;38809;53.300;6.614;2023-12-04T10:04:33;12.52;;;8.10;;
52942;SDS011;38809;53.300;6.614;2023-12-04T10:07:00;13.13;;;8.98;;
52942;SDS011;38809;53.300;6.614;2023-12-04T10:09:29;12.73;;;8.48;;
52942;SDS011;38809;53.300;6.614;2023-12-04T10:11:55;13.82;;;9.48;;
52942;SDS011;38809;53.300;6.614;2023-12-04T10:14:22;14.15;;;9.35;;
52942;SDS011;38809;53.300;6.614;2023-12-04T10:16:52;13.95;;;9.05;;
52942;SDS011;38809;53.300;6.614;2023-12-04T10:19:23;12.32;;;7.72;;
52942;SDS011;38809;53.300;6.614;2023-12-04T10:21:57;14.32;;;8.68;;
52942;SDS011;38809;53.300;6.614;2023-12-04T10:26:55;13.38;;;8.95;;
52942;SDS011;38809;53.300;6.614;2023-12-04T10:29:22;10.63;;;7.50;;
52942;SDS011;38809;53.300;6.614;2023-12-04T10:31:49;12.60;;;8.02;;
52942;SDS011;38809;53.300;6.614;2023-12-04T10:34:16;13.23;;;8.05;;
52942;SDS011;38809;53.300;6.614;2023-12-04T10:36:42;11.90;;;7.75;;
52942;SDS011;38809;53.300;6.614;2023-12-04T10:39:10;14.38;;;8.70;;
52942;SDS011;38809;53.300;6.614;2023-12-04T10:41:42;13.98;;;8.02;;
52942;SDS011;38809;53.300;6.614;2023-12-04T10:44:08;13.85;;;9.38;;
52942;SDS011;38809;53.300;6.614;2023-12-04T10:46:37;11.88;;;7.88;;
52942;SDS011;38809;53.300;6.614;2023-12-04T10:49:05;11.45;;;7.35;;
52942;SDS011;38809;53.300;6.614;2023-12-04T10:51:40;12.30;;;8.07;;
52942;SDS011;38809;53.300;6.614;2023-12-04T10:54:06;11.45;;;7.57;;
52942;SDS011;38809;53.300;6.614;2023-12-04T10:56:36;14.73;;;8.60;;
52942;SDS011;38809;53.300;6.614;2023-12-04T10:59:10;10.25;;;6.65;;
52942;SDS011;38809;53.300;6.614;2023-12-04T11:01:37;12.77;;;7.60;;
52942;SDS011;38809;53.300;6.614;2023-12-04T11:04:04;12.00;;;8.20;;
52942;SDS011;38809;53.300;6.614;2023-12-04T11:06:42;11.15;;;7.63;;
52942;SDS011;38809;53.300;6.614;2023-12-04T11:09:14;11.55;;;7.45;;
52942;SDS011;38809;53.300;6.614;2023-12-04T11:14:18;11.73;;;7.43;;
52942;SDS011;38809;53.300;6.614;2023-12-04T11:16:47;13.88;;;7.32;;
52942;SDS011;38809;53.300;6.614;2023-12-04T11:19:18;14.65;;;8.30;;
52942;SDS011;38809;53.300;6.614;2023-12-04T11:21:49;11.90;;;8.35;;
52942;SDS011;38809;53.300;6.614;2023-12-04T11:24:16;11.40;;;6.93;;
52942;SDS011;38809;53.300;6.614;2023-12-04T11:26:48;13.02;;;8.63;;
52942;SDS011;38809;53.300;6.614;2023-12-04T11:29:14;12.20;;;8.20;;
52942;SDS011;38809;53.300;6.614;2023-12-04T11:34:14;10.82;;;7.25;;
52942;SDS011;38809;53.300;6.614;2023-12-04T11:36:40;13.10;;;7.60;;
52942;SDS011;38809;53.300;6.614;2023-12-04T11:39:10;11.77;;;7.65;;
52942;SDS011;38809;53.300;6.614;2023-12-04T11:41:36;11.68;;;8.30;;
52942;SDS011;38809;53.300;6.614;2023-12-04T11:44:11;11.38;;;7.97;;
52942;SDS011;38809;53.300;6.614;2023-12-04T11:46:54;11.20;;;7.22;;
52942;SDS011;38809;53.300;6.614;2023-12-04T11:49:26;11.60;;;7.68;;
52942;SDS011;38809;53.300;6.614;2023-12-04T11:51:56;11.35;;;7.45;;
52942;SDS011;38809;53.300;6.614;2023-12-04T11:54:22;12.75;;;8.13;;
52942;SDS011;38809;53.300;6.614;2023-12-04T11:59:26;10.48;;;7.32;;
52942;SDS011;38809;53.300;6.614;2023-12-04T12:01:56;10.50;;;6.85;;
52942;SDS011;38809;53.300;6.614;2023-12-04T12:04:22;10.35;;;7.40;;
52942;SDS011;38809;53.300;6.614;2023-12-04T12:06:54;11.15;;;8.23;;
52942;SDS011;38809;53.300;6.614;2023-12-04T12:09:21;11.25;;;8.23;;
52942;SDS011;38809;53.300;6.614;2023-12-04T12:11:51;14.60;;;9.23;;
52942;SDS011;38809;53.300;6.614;2023-12-04T12:14:22;10.98;;;7.35;;
52942;SDS011;38809;53.300;6.614;2023-12-04T12:16:49;10.90;;;7.40;;
52942;SDS011;38809;53.300;6.614;2023-12-04T12:19:19;11.95;;;8.52;;
52942;SDS011;38809;53.300;6.614;2023-12-04T12:21:48;11.55;;;7.90;;
52942;SDS011;38809;53.300;6.614;2023-12-04T12:24:16;10.40;;;7.07;;
52942;SDS011;38809;53.300;6.614;2023-12-04T12:26:43;10.48;;;7.18;;
52942;SDS011;38809;53.300;6.614;2023-12-04T12:29:24;10.98;;;7.90;;
52942;SDS011;38809;53.300;6.614;2023-12-04T12:31:50;10.50;;;6.93;;
52942;SDS011;38809;53.300;6.614;2023-12-04T12:34:17;11.48;;;7.90;;
52942;SDS011;38809;53.300;6.614;2023-12-04T12:36:43;11.13;;;7.30;;
52942;SDS011;38809;53.300;6.614;2023-12-04T12:39:09;10.60;;;7.28;;
52942;SDS011;38809;53.300;6.614;2023-12-04T12:41:37;12.63;;;8.50;;
52942;SDS011;38809;53.300;6.614;2023-12-04T12:44:06;10.18;;;7.03;;
52942;SDS011;38809;53.300;6.614;2023-12-04T12:46:33;11.98;;;8.52;;
52942;SDS011;38809;53.300;6.614;2023-12-04T12:48:59;11.55;;;7.68;;
52942;SDS011;38809;53.300;6.614;2023-12-04T12:51:32;15.30;;;6.95;;
52942;SDS011;38809;53.300;6.614;2023-12-04T12:54:01;12.38;;;8.18;;
52942;SDS011;38809;53.300;6.614;2023-12-04T12:56:28;11.63;;;7.57;;
52942;SDS011;38809;53.300;6.614;2023-12-04T12:58:54;11.45;;;7.85;;
52942;SDS011;38809;53.300;6.614;2023-12-04T13:01:23;12.00;;;7.47;;
52942;SDS011;38809;53.300;6.614;2023-12-04T13:03:56;11.40;;;7.50;;
52942;SDS011;38809;53.300;6.614;2023-12-04T13:06:25;10.60;;;7.25;;
52942;SDS011;38809;53.300;6.614;2023-12-04T13:08:52;11.45;;;7.13;;
52942;SDS011;38809;53.300;6.614;2023-12-04T13:11:18;11.93;;;7.05;;
52942;SDS011;38809;53.300;6.614;2023-12-04T13:13:44;10.68;;;7.13;;
52942;SDS011;38809;53.300;6.614;2023-12-04T13:16:11;11.00;;;7.63;;
52942;SDS011;38809;53.300;6.614;2023-12-04T13:18:40;12.65;;;7.70;;
52942;SDS011;38809;53.300;6.614;2023-12-04T13:21:09;12.57;;;8.50;;
52942;SDS011;38809;53.300;6.614;2023-12-04T13:23:36;12.10;;;7.53;;
52942;SDS011;38809;53.300;6.614;2023-12-04T13:26:09;11.88;;;7.38;;
52942;SDS011;38809;53.300;6.614;2023-12-04T13:31:03;10.80;;;6.82;;
52942;SDS011;38809;53.300;6.614;2023-12-04T13:33:30;12.35;;;8.68;;
52942;SDS011;38809;53.300;6.614;2023-12-04T13:36:02;12.45;;;8.40;;
52942;SDS011;38809;53.300;6.614;2023-12-04T13:38:30;12.20;;;7.35;;
52942;SDS011;38809;53.300;6.614;2023-12-04T13:40:56;12.48;;;7.65;;
52942;SDS011;38809;53.300;6.614;2023-12-04T13:43:33;10.65;;;6.88;;
52942;SDS011;38809;53.300;6.614;2023-12-04T13:46:15;11.13;;;7.75;;
52942;SDS011;38809;53.300;6.614;2023-12-04T13:48:44;10.65;;;7.65;;
52942;SDS011;38809;53.300;6.614;2023-12-04T13:51:10;12.70;;;7.95;;
52942;SDS011;38809;53.300;6.614;2023-12-04T13:53:39;11.35;;;7.78;;
52942;SDS011;38809;53.300;6.614;2023-12-04T13:56:09;12.40;;;8.15;;
52942;SDS011;38809;53.300;6.614;2023-12-04T13:58:54;11.77;;;8.10;;
52942;SDS011;38809;53.300;6.614;2023-12-04T14:01:24;12.40;;;7.93;;
52942;SDS011;38809;53.300;6.614;2023-12-04T14:03:54;11.90;;;7.85;;
52942;SDS011;38809;53.300;6.614;2023-12-04T14:06:29;12.88;;;8.80;;
52942;SDS011;38809;53.300;6.614;2023-12-04T14:08:56;13.25;;;8.65;;
52942;SDS011;38809;53.300;6.614;2023-12-04T14:11:22;13.05;;;7.60;;
52942;SDS011;38809;53.300;6.614;2023-12-04T14:13:50;13.18;;;8.10;;
52942;SDS011;38809;53.300;6.614;2023-12-04T14:16:22;11.63;;;8.23;;
52942;SDS011;38809;53.300;6.614;2023-12-04T14:18:52;10.90;;;7.88;;
52942;SDS011;38809;53.300;6.614;2023-12-04T14:21:18;13.07;;;7.55;;
52942;SDS011;38809;53.300;6.614;2023-12-04T14:23:45;11.88;;;7.80;;
52942;SDS011;38809;53.300;6.614;2023-12-04T14:26:15;10.95;;;7.75;;
52942;SDS011;38809;53.300;6.614;2023-12-04T14:28:41;11.02;;;7.88;;
52942;SDS011;38809;53.300;6.614;2023-12-04T14:31:07;12.20;;;8.43;;
52942;SDS011;38809;53.300;6.614;2023-12-04T14:33:33;11.73;;;7.35;;
52942;SDS011;38809;53.300;6.614;2023-12-04T14:35:59;11.23;;;7.22;;
52942;SDS011;38809;53.300;6.614;2023-12-04T14:38:26;12.70;;;8.50;;
52942;SDS011;38809;53.300;6.614;2023-12-04T14:40:52;10.80;;;7.18;;
52942;SDS011;38809;53.300;6.614;2023-12-04T14:43:22;11.35;;;8.18;;
52942;SDS011;38809;53.300;6.614;2023-12-04T14:45:48;11.98;;;8.13;;
52942;SDS011;38809;53.300;6.614;2023-12-04T14:48:18;10.95;;;7.53;;
52942;SDS011;38809;53.300;6.614;2023-12-04T14:50:44;12.15;;;7.68;;
52942;SDS011;38809;53.300;6.614;2023-12-04T14:53:17;13.18;;;8.93;;
52942;SDS011;38809;53.300;6.614;2023-12-04T14:55:48;11.38;;;7.55;;
52942;SDS011;38809;53.300;6.614;2023-12-04T14:58:39;10.82;;;7.47;;
52942;SDS011;38809;53.300;6.614;2023-12-04T15:01:14;11.00;;;7.85;;
52942;SDS011;38809;53.300;6.614;2023-12-04T15:03:46;11.45;;;7.75;;
52942;SDS011;38809;53.300;6.614;2023-12-04T15:06:31;11.40;;;7.78;;
52942;SDS011;38809;53.300;6.614;2023-12-04T15:09:16;11.60;;;7.95;;
52942;SDS011;38809;53.300;6.614;2023-12-04T15:11:52;13.10;;;8.10;;
52942;SDS011;38809;53.300;6.614;2023-12-04T15:14:40;12.07;;;8.43;;